Time;durP1;ratioP1;P1;durP2;ratioP2;P2;SDS_P1;SDS_P2;PMS_P1;PMS_P2;Temp;Humidity;BMP_temperature;BMP_pressure;BME280_temperature;BME280_humidity;BME280_pressure;Samples;Min_cycle;Max_cycle;Signal;HPM_P1;HPM_P2
2022/11/18 00:07:47;;;;;;;12.40;8.80;;;;;;;-0.30;86.04;97356.70;420827;1299;96902;-40
2022/11/18 00:17:55;;;;;;;24.10;12.50;;;;;;;-0.12;86.41;97355.95;420809;1305;109651;-39
2022/11/18 00:28:02;;;;;;;27.40;12.40;;;;;;;-0.05;86.40;97365.25;420796;1295;107284;-41
2022/11/18 00:38:09;;;;;;;21.00;12.90;;;;;;;-0.14;86.11;97371.53;420819;1299;97899;-40
2022/11/18 00:58:23;;;;;;;21.50;13.70;;;;;;;-0.14;86.31;97379.09;420885;1295;107235;-40
2022/11/18 01:08:30;;;;;;;23.30;12.30;;;;;;;-0.03;86.24;97376.49;420664;1285;97490;-39
2022/11/18 01:18:37;;;;;;;25.70;16.10;;;;;;;-0.05;86.38;97362.22;420811;1299;109443;-41
2022/11/18 01:28:45;;;;;;;16.80;11.10;;;;;;;-0.24;86.47;97338.43;420774;1299;106156;-40
2022/11/18 01:38:53;;;;;;;16.40;10.40;;;;;;;-0.30;86.23;97318.81;420904;1290;98011;-41
2022/11/18 01:49:05;;;;;;;8.40;6.80;;;;;;;-0.32;86.34;97299.30;420803;1287;108134;-40
2022/11/18 01:59:15;;;;;;;16.90;9.80;;;;;;;-0.27;86.41;97292.85;420857;1291;96751;-40
2022/11/18 02:09:23;;;;;;;24.00;11.50;;;;;;;-0.37;86.60;97296.58;421762;1267;111465;-40
2022/11/18 02:19:49;;;;;;;14.40;9.60;;;;;;;-0.41;86.52;97297.00;420814;1291;106772;-41
2022/11/18 02:29:59;;;;;;;13.10;8.50;;;;;;;-0.35;86.60;97295.98;420403;1301;97858;-41
2022/11/18 02:40:05;;;;;;;16.20;10.10;;;;;;;-0.25;86.66;97284.39;420840;1299;109151;-39
2022/11/18 02:50:12;;;;;;;24.40;12.80;;;;;;;-0.24;86.83;97276.45;420696;1299;108952;-38
2022/11/18 03:00:20;;;;;;;20.40;12.60;;;;;;;-0.32;86.74;97274.65;420725;1299;97765;-40
2022/11/18 03:10:33;;;;;;;14.50;9.20;;;;;;;-0.37;86.77;97279.15;420708;1301;111993;-39
2022/11/18 03:20:41;;;;;;;17.10;11.60;;;;;;;-0.38;86.99;97281.35;420642;1292;107271;-41
2022/11/18 03:30:54;;;;;;;20.60;13.80;;;;;;;-0.41;87.21;97272.35;420614;1299;96711;-41
2022/11/18 03:41:06;;;;;;;17.70;11.70;;;;;;;-0.48;87.05;97267.84;420649;1298;108124;-42
2022/11/18 03:51:15;;;;;;;19.10;12.20;;;;;;;-0.49;86.96;97268.86;420731;1301;97455;-39
2022/11/18 04:01:25;;;;;;;17.20;10.50;;;;;;;-0.46;87.15;97267.73;420793;1301;110083;-42
2022/11/18 04:21:53;;;;;;;19.30;11.70;;;;;;;-0.59;87.38;97261.15;420894;1301;97905;-40
2022/11/18 04:32:00;;;;;;;14.80;9.10;;;;;;;-0.61;87.07;97258.84;420726;1292;111555;-41
2022/11/18 04:42:08;;;;;;;16.00;9.20;;;;;;;-0.61;87.26;97250.01;420680;1288;107785;-41
2022/11/18 04:52:15;;;;;;;20.00;12.50;;;;;;;-0.73;87.21;97238.03;420788;1302;100226;-39
2022/11/18 05:02:23;;;;;;;14.60;9.70;;;;;;;-0.74;87.07;97247.97;420733;1292;110703;-41
2022/11/18 05:22:55;;;;;;;35.00;15.80;;;;;;;-0.64;87.10;97253.67;420658;1299;97308;-41
2022/11/18 05:33:02;;;;;;;30.50;16.10;;;;;;;-0.72;87.09;97264.16;420751;1301;109824;-40
2022/11/18 05:43:13;;;;;;;20.00;13.60;;;;;;;-0.87;86.65;97282.95;420702;1299;109265;-40
2022/11/18 06:03:34;;;;;;;28.10;16.00;;;;;;;-1.14;86.76;97298.14;420760;1301;109467;-40
2022/11/18 06:13:49;;;;;;;23.40;15.80;;;;;;;-1.19;86.76;97303.39;420750;1292;107717;-41
2022/11/18 06:23:57;;;;;;;25.40;13.50;;;;;;;-1.19;86.61;97306.00;420814;1305;97886;-41
2022/11/18 06:34:02;;;;;;;27.80;17.30;;;;;;;-1.34;86.68;97325.07;421544;1302;109304;-41
2022/11/18 06:44:11;;;;;;;23.40;13.50;;;;;;;-1.46;86.16;97327.73;420841;1299;107376;-39
2022/11/18 06:54:19;;;;;;;20.90;14.40;;;;;;;-1.51;86.31;97328.72;420828;1297;97876;-40
2022/11/18 07:04:27;;;;;;;30.50;17.60;;;;;;;-1.59;86.09;97342.10;420738;1297;111640;-41
2022/11/18 07:14:34;;;;;;;22.70;15.60;;;;;;;-1.60;85.57;97363.70;420752;1290;108527;-40
2022/11/18 07:24:42;;;;;;;22.40;15.20;;;;;;;-1.56;85.85;97367.77;420680;1299;97826;-41
2022/11/18 07:34:49;;;;;;;26.80;17.90;;;;;;;-1.72;85.40;97372.20;420668;1299;111632;-42
2022/11/18 07:44:56;;;;;;;19.20;12.60;;;;;;;-1.78;84.96;97373.34;420674;1299;107606;-41
2022/11/18 07:55:03;;;;;;;23.30;15.30;;;;;;;-1.84;84.64;97375.20;420703;1297;97890;-40
2022/11/18 08:05:08;;;;;;;24.00;12.30;;;;;;;-1.88;84.52;97367.85;420688;1300;110326;-40
2022/11/18 08:15:23;;;;;;;19.20;11.40;;;;;;;-1.83;84.03;97364.08;420652;1299;109356;-41
2022/11/18 08:25:31;;;;;;;24.10;14.80;;;;;;;-1.80;83.67;97371.13;420709;1304;97902;-41
2022/11/18 08:35:38;;;;;;;28.70;16.50;;;;;;;-1.84;83.60;97378.67;420783;1297;96678;-40
2022/11/18 08:45:45;;;;;;;15.90;10.80;;;;;;;-1.83;82.87;97373.77;420646;1290;110569;-42
2022/11/18 08:55:55;;;;;;;18.10;12.90;;;;;;;-1.80;83.02;97379.90;420716;1292;108434;-40
2022/11/18 09:06:06;;;;;;;22.20;14.20;;;;;;;-1.81;82.20;97394.92;420772;1294;97773;-40
2022/11/18 09:16:14;;;;;;;15.70;10.50;;;;;;;-1.81;81.73;97398.66;420969;1299;109769;-40
2022/11/18 09:26:39;;;;;;;23.80;15.30;;;;;;;-1.84;81.19;97400.05;420658;1298;109411;-41
2022/11/18 09:36:47;;;;;;;24.90;15.40;;;;;;;-1.90;80.70;97400.88;420689;1292;98068;-41
2022/11/18 09:46:56;;;;;;;17.90;11.00;;;;;;;-1.86;80.26;97411.89;420637;1297;109852;-43
2022/11/18 09:57:10;;;;;;;24.00;16.10;;;;;;;-1.90;79.88;97403.67;420741;1297;107161;-41
2022/11/18 10:07:22;;;;;;;25.80;16.00;;;;;;;-1.92;79.24;97413.04;420668;1292;97905;-42
2022/11/18 10:17:32;;;;;;;21.80;15.10;;;;;;;-1.95;79.19;97419.88;420693;1292;110371;-40
2022/11/18 10:27:43;;;;;;;26.70;17.20;;;;;;;-1.88;79.54;97415.09;420794;1291;107198;-42
2022/11/18 10:48:16;;;;;;;27.80;16.30;;;;;;;-1.76;78.98;97411.04;420800;1299;110434;-40
2022/11/18 10:58:24;;;;;;;35.90;21.40;;;;;;;-1.74;78.86;97418.76;420865;1301;108218;-41
2022/11/18 11:08:32;;;;;;;45.40;23.80;;;;;;;-1.74;78.75;97419.31;420905;1301;97915;-41
2022/11/18 11:18:55;;;;;;;33.30;18.70;;;;;;;-1.77;78.39;97438.45;420219;1301;670985;-40
2022/11/18 11:39:13;;;;;;;46.30;25.00;;;;;;;-1.78;78.48;97446.25;420790;1302;97886;-40
2022/11/18 11:49:29;;;;;;;35.70;18.80;;;;;;;-1.78;78.15;97444.63;420592;1299;111731;-40
2022/11/18 11:59:37;;;;;;;43.70;23.00;;;;;;;-1.70;78.47;97436.96;420663;1292;108484;-41
2022/11/18 12:09:46;;;;;;;42.80;21.50;;;;;;;-1.76;78.00;97431.21;420688;1299;97759;-40
2022/11/18 12:19:53;;;;;;;35.00;19.60;;;;;;;-1.73;78.13;97425.06;420637;1297;110258;-40
2022/11/18 12:30:02;;;;;;;51.10;22.00;;;;;;;-1.62;78.26;97433.70;420537;1299;106881;-41
2022/11/18 12:40:10;;;;;;;45.70;23.40;;;;;;;-1.59;77.95;97426.60;420805;1299;99223;-40
2022/11/18 12:50:18;;;;;;;31.20;18.80;;;;;;;-1.62;77.96;97435.65;420547;1292;107607;-40
2022/11/18 13:31:57;;;;;;;35.70;19.60;;;;;;;-1.81;78.60;97461.33;420475;1290;99243;-40
2022/11/18 13:42:05;;;;;;;36.30;18.90;;;;;;;-1.85;78.77;97465.70;420561;1301;112748;-40
2022/11/18 13:52:11;;;;;;;25.10;16.30;;;;;;;-2.01;78.45;97467.00;420544;1295;109576;-40
2022/11/18 14:02:19;;;;;;;20.90;11.20;;;;;;;-2.11;78.53;97477.63;420758;1297;99245;-41
2022/11/18 14:22:49;;;;;;;26.70;15.20;;;;;;;-2.29;78.81;97517.72;420661;1291;98879;-41
2022/11/18 14:33:13;;;;;;;14.90;9.90;;;;;;;-2.38;78.55;97531.69;420594;1301;112343;-42
2022/11/18 14:43:21;;;;;;;18.40;11.00;;;;;;;-2.30;78.83;97543.30;420667;1299;107779;-41
2022/11/18 14:53:28;;;;;;;19.90;10.90;;;;;;;-2.44;78.14;97553.14;420582;1293;98033;-42
2022/11/18 15:13:42;;;;;;;13.70;8.10;;;;;;;-2.66;77.31;97557.88;420587;1291;99304;-41
2022/11/18 15:23:50;;;;;;;12.30;7.70;;;;;;;-2.57;77.23;97565.50;420632;1301;111455;-41
2022/11/18 15:33:58;;;;;;;22.90;13.10;;;;;;;-2.52;77.54;97571.45;420632;1292;106589;-41
2022/11/18 15:44:12;;;;;;;19.40;11.60;;;;;;;-2.60;76.94;97566.00;420683;1299;97974;-41
2022/11/18 15:54:18;;;;;;;21.20;12.80;;;;;;;-2.67;76.62;97582.32;420599;1291;111785;-40
2022/11/18 16:04:27;;;;;;;15.40;9.20;;;;;;;-2.61;76.38;97583.96;420474;1299;108072;-41
2022/11/18 16:14:35;;;;;;;21.30;11.40;;;;;;;-2.54;76.30;97587.31;420573;1292;99226;-42
2022/11/18 16:24:41;;;;;;;;;;;;;;;-2.58;75.73;97599.52;420613;1299;110789;-40
2022/11/18 16:34:54;;;;;;;24.30;15.10;;;;;;;-2.59;76.15;97598.13;420566;1297;108416;-42
2022/11/18 16:45:08;;;;;;;22.40;12.40;;;;;;;-2.48;75.99;97603.81;420501;1291;99242;-40
2022/11/18 16:55:16;;;;;;;21.80;12.00;;;;;;;-2.45;75.95;97612.71;420605;1292;107595;-40
2022/11/18 17:05:24;;;;;;;28.00;13.00;;;;;;;-2.49;75.91;97622.68;420523;1298;98952;-42
2022/11/18 17:15:31;;;;;;;24.20;11.60;;;;;;;-2.51;75.82;97621.75;420592;1292;111099;-40
2022/11/18 17:35:44;;;;;;;20.50;10.40;;;;;;;-2.49;75.55;97636.45;420517;1284;99238;-39
2022/11/18 17:55:57;;;;;;;61.30;24.10;;;;;;;-2.37;75.87;97646.94;420560;1291;98053;-42
2022/11/18 18:06:07;;;;;;;28.10;11.70;;;;;;;-2.32;75.71;97653.77;420656;1297;112203;-41
2022/11/18 18:16:15;;;;;;;20.50;12.20;;;;;;;-2.22;75.76;97653.30;420449;1298;108198;-40
2022/11/18 18:26:22;;;;;;;27.90;13.10;;;;;;;-2.20;76.07;97667.40;420513;1297;99223;-39
2022/11/18 18:36:38;;;;;;;21.60;11.00;;;;;;;-2.18;76.20;97679.30;420722;1298;111095;-41
2022/11/18 18:46:43;;;;;;;23.20;11.60;;;;;;;-2.27;76.26;97687.33;420537;1290;107564;-40
2022/11/18 18:56:51;;;;;;;31.90;13.70;;;;;;;-2.31;76.14;97696.94;420817;1295;99259;-41
2022/11/18 19:06:58;;;;;;;18.20;9.60;;;;;;;-2.28;76.14;97701.27;420682;1295;109306;-41
2022/11/18 19:17:05;;;;;;;27.60;13.60;;;;;;;-2.24;76.03;97701.86;420671;1291;98051;-40
2022/11/18 19:27:17;;;;;;;34.50;14.80;;;;;;;-2.27;76.28;97706.00;422270;1297;110923;-40
2022/11/18 19:37:24;;;;;;;31.90;15.30;;;;;;;-2.28;76.39;97718.86;422500;1292;108262;-39
2022/11/18 19:57:37;;;;;;;23.20;12.60;;;;;;;-2.32;76.25;97721.61;420859;1291;113001;-40
2022/11/18 20:07:45;;;;;;;25.60;13.10;;;;;;;-2.28;76.27;97738.41;420631;1291;107670;-40
2022/11/18 20:17:52;;;;;;;33.50;16.70;;;;;;;-2.26;76.72;97740.56;420831;1291;98030;-41
2022/11/18 20:27:59;;;;;;;27.40;15.50;;;;;;;-2.37;76.49;97745.98;420795;1285;110166;-40
2022/11/18 20:38:06;;;;;;;25.80;14.90;;;;;;;-2.46;76.66;97758.68;420711;1291;98533;-40
2022/11/18 20:58:20;;;;;;;25.20;12.40;;;;;;;-2.48;76.81;97761.48;420732;1290;109318;-40
2022/11/18 21:08:27;;;;;;;23.90;13.50;;;;;;;-2.53;76.91;97762.77;420707;1301;98562;-40
2022/11/18 21:18:35;;;;;;;25.40;13.60;;;;;;;-2.55;77.04;97780.70;420627;1292;111557;-41
2022/11/18 21:28:42;;;;;;;24.10;12.20;;;;;;;-2.55;76.91;97791.77;420507;1286;108239;-41
2022/11/18 21:38:49;;;;;;;20.80;11.20;;;;;;;-2.49;77.03;97796.50;420677;1292;99377;-41
2022/11/18 21:48:57;;;;;;;22.90;13.00;;;;;;;-2.53;77.46;97798.58;420842;1300;107086;-40
2022/11/18 21:59:03;;;;;;;;;;;;;;;-2.57;77.69;97805.13;420783;1295;99244;-40
2022/11/18 22:09:11;;;;;;;24.40;13.60;;;;;;;-2.64;77.79;97822.05;420658;1300;111679;-40
2022/11/18 22:19:18;;;;;;;27.30;14.00;;;;;;;-2.62;77.99;97824.24;420682;1299;109142;-41
2022/11/18 22:29:25;;;;;;;22.00;12.00;;;;;;;-2.46;78.22;97830.29;420607;1298;98031;-40
2022/11/18 22:39:33;;;;;;;53.00;22.50;;;;;;;-2.32;78.34;97819.09;420683;1284;108479;-40
2022/11/18 22:49:40;;;;;;;97.00;35.00;;;;;;;-2.37;78.38;97829.67;420834;1290;98853;-40
2022/11/18 22:59:48;;;;;;;33.30;17.80;;;;;;;-2.46;78.50;97840.19;420769;1299;111585;-40
2022/11/18 23:09:55;;;;;;;70.20;27.10;;;;;;;-2.51;78.70;97840.47;420442;1298;402536;-40
2022/11/18 23:20:02;;;;;;;44.60;21.40;;;;;;;-2.51;78.80;97837.88;420588;1291;99345;-41
2022/11/18 23:30:11;;;;;;;29.60;17.00;;;;;;;-2.50;78.81;97847.16;420680;1301;111893;-40
2022/11/18 23:40:19;;;;;;;32.90;18.10;;;;;;;-2.35;78.99;97847.98;420716;1291;108269;-39
2022/11/18 23:50:26;;;;;;;39.10;19.00;;;;;;;-2.22;79.08;97861.63;420812;1292;99226;-41
